sensor_id;sensor_type;location;lat;lon;timestamp;P1;durP1;ratioP1;P2;durP2;ratioP2
36215;SDS011;22257;52.232;21.084;2022-07-21T00:01:48;11.53;;;4.67;;
36215;SDS011;22257;52.232;21.084;2022-07-21T00:04:16;12.25;;;4.25;;
36215;SDS011;22257;52.232;21.084;2022-07-21T00:06:43;7.83;;;4.00;;
36215;SDS011;22257;52.232;21.084;2022-07-21T00:09:10;14.58;;;4.47;;
36215;SDS011;22257;52.232;21.084;2022-07-21T00:11:37;10.13;;;3.90;;
36215;SDS011;22257;52.232;21.084;2022-07-21T00:14:05;8.25;;;4.00;;
36215;SDS011;22257;52.232;21.084;2022-07-21T00:16:32;9.80;;;4.17;;
36215;SDS011;22257;52.232;21.084;2022-07-21T00:18:58;7.87;;;3.85;;
36215;SDS011;22257;52.232;21.084;2022-07-21T00:21:26;5.78;;;3.80;;
36215;SDS011;22257;52.232;21.084;2022-07-21T00:23:52;7.60;;;3.92;;
36215;SDS011;22257;52.232;21.084;2022-07-21T00:26:19;6.12;;;3.75;;
36215;SDS011;22257;52.232;21.084;2022-07-21T00:28:45;5.53;;;3.77;;
36215;SDS011;22257;52.232;21.084;2022-07-21T00:31:12;9.68;;;4.25;;
36215;SDS011;22257;52.232;21.084;2022-07-21T00:33:38;8.48;;;4.22;;
36215;SDS011;22257;52.232;21.084;2022-07-21T00:36:04;7.15;;;4.33;;
36215;SDS011;22257;52.232;21.084;2022-07-21T00:38:31;7.87;;;4.30;;
36215;SDS011;22257;52.232;21.084;2022-07-21T00:40:57;7.25;;;4.30;;
36215;SDS011;22257;52.232;21.084;2022-07-21T00:43:24;10.58;;;4.58;;
36215;SDS011;22257;52.232;21.084;2022-07-21T00:45:53;10.43;;;4.67;;
36215;SDS011;22257;52.232;21.084;2022-07-21T00:48:20;12.47;;;4.80;;
36215;SDS011;22257;52.232;21.084;2022-07-21T00:50:47;15.98;;;4.72;;
36215;SDS011;22257;52.232;21.084;2022-07-21T00:53:13;7.45;;;4.10;;
36215;SDS011;22257;52.232;21.084;2022-07-21T00:55:41;8.15;;;4.45;;
36215;SDS011;22257;52.232;21.084;2022-07-21T00:58:08;11.83;;;4.58;;
36215;SDS011;22257;52.232;21.084;2022-07-21T01:00:35;11.43;;;4.90;;
36215;SDS011;22257;52.232;21.084;2022-07-21T01:03:02;8.48;;;4.08;;
36215;SDS011;22257;52.232;21.084;2022-07-21T01:05:28;6.90;;;4.33;;
36215;SDS011;22257;52.232;21.084;2022-07-21T01:07:55;10.03;;;4.17;;
36215;SDS011;22257;52.232;21.084;2022-07-21T01:10:24;7.33;;;4.03;;
36215;SDS011;22257;52.232;21.084;2022-07-21T01:12:51;7.95;;;4.25;;
36215;SDS011;22257;52.232;21.084;2022-07-21T01:15:18;8.70;;;4.08;;
36215;SDS011;22257;52.232;21.084;2022-07-21T01:17:45;7.58;;;3.87;;
36215;SDS011;22257;52.232;21.084;2022-07-21T01:20:13;7.03;;;4.22;;
36215;SDS011;22257;52.232;21.084;2022-07-21T01:22:42;11.68;;;4.67;;
36215;SDS011;22257;52.232;21.084;2022-07-21T01:25:09;6.42;;;4.10;;
36215;SDS011;22257;52.232;21.084;2022-07-21T01:27:36;7.65;;;3.83;;
36215;SDS011;22257;52.232;21.084;2022-07-21T01:30:03;6.10;;;4.17;;
36215;SDS011;22257;52.232;21.084;2022-07-21T01:32:34;7.55;;;3.70;;
36215;SDS011;22257;52.232;21.084;2022-07-21T01:35:01;8.63;;;3.47;;
36215;SDS011;22257;52.232;21.084;2022-07-21T01:37:29;6.58;;;4.67;;
36215;SDS011;22257;52.232;21.084;2022-07-21T01:39:56;6.72;;;4.20;;
36215;SDS011;22257;52.232;21.084;2022-07-21T01:42:41;6.10;;;3.95;;
36215;SDS011;22257;52.232;21.084;2022-07-21T01:45:08;6.83;;;4.15;;
36215;SDS011;22257;52.232;21.084;2022-07-21T01:47:34;8.20;;;4.20;;
36215;SDS011;22257;52.232;21.084;2022-07-21T01:50:00;6.08;;;4.20;;
36215;SDS011;22257;52.232;21.084;2022-07-21T01:52:27;5.55;;;3.77;;
36215;SDS011;22257;52.232;21.084;2022-07-21T01:54:53;10.03;;;4.33;;
36215;SDS011;22257;52.232;21.084;2022-07-21T01:57:19;15.30;;;4.58;;
36215;SDS011;22257;52.232;21.084;2022-07-21T01:59:45;7.12;;;4.35;;
36215;SDS011;22257;52.232;21.084;2022-07-21T02:02:11;7.47;;;4.60;;
36215;SDS011;22257;52.232;21.084;2022-07-21T02:04:37;6.97;;;4.50;;
36215;SDS011;22257;52.232;21.084;2022-07-21T02:07:03;5.42;;;4.22;;
36215;SDS011;22257;52.232;21.084;2022-07-21T02:09:29;5.37;;;4.20;;
36215;SDS011;22257;52.232;21.084;2022-07-21T02:11:56;5.03;;;4.17;;
36215;SDS011;22257;52.232;21.084;2022-07-21T02:14:22;9.68;;;4.20;;
36215;SDS011;22257;52.232;21.084;2022-07-21T02:16:48;6.08;;;4.15;;
36215;SDS011;22257;52.232;21.084;2022-07-21T02:19:14;6.80;;;4.25;;
36215;SDS011;22257;52.232;21.084;2022-07-21T02:21:40;6.85;;;4.50;;
36215;SDS011;22257;52.232;21.084;2022-07-21T02:24:06;6.47;;;4.42;;
36215;SDS011;22257;52.232;21.084;2022-07-21T02:26:33;11.93;;;4.65;;
36215;SDS011;22257;52.232;21.084;2022-07-21T02:28:59;5.55;;;4.40;;
36215;SDS011;22257;52.232;21.084;2022-07-21T02:31:25;6.85;;;4.20;;
36215;SDS011;22257;52.232;21.084;2022-07-21T02:33:51;10.08;;;4.50;;
36215;SDS011;22257;52.232;21.084;2022-07-21T02:36:17;7.97;;;4.80;;
36215;SDS011;22257;52.232;21.084;2022-07-21T02:38:43;8.10;;;4.35;;
36215;SDS011;22257;52.232;21.084;2022-07-21T02:41:10;8.43;;;4.80;;
36215;SDS011;22257;52.232;21.084;2022-07-21T02:43:36;6.95;;;5.08;;
36215;SDS011;22257;52.232;21.084;2022-07-21T02:46:02;7.15;;;5.12;;
36215;SDS011;22257;52.232;21.084;2022-07-21T02:48:28;8.88;;;4.55;;
36215;SDS011;22257;52.232;21.084;2022-07-21T02:50:54;8.20;;;4.72;;
36215;SDS011;22257;52.232;21.084;2022-07-21T02:53:20;13.08;;;5.03;;
36215;SDS011;22257;52.232;21.084;2022-07-21T02:55:48;6.30;;;4.78;;
36215;SDS011;22257;52.232;21.084;2022-07-21T02:58:22;11.18;;;5.17;;
36215;SDS011;22257;52.232;21.084;2022-07-21T03:00:51;7.70;;;5.05;;
36215;SDS011;22257;52.232;21.084;2022-07-21T03:03:19;7.53;;;4.90;;
36215;SDS011;22257;52.232;21.084;2022-07-21T03:05:47;9.90;;;5.33;;
36215;SDS011;22257;52.232;21.084;2022-07-21T03:08:14;14.93;;;5.65;;
36215;SDS011;22257;52.232;21.084;2022-07-21T03:10:42;11.60;;;6.00;;
36215;SDS011;22257;52.232;21.084;2022-07-21T03:13:08;11.22;;;5.70;;
36215;SDS011;22257;52.232;21.084;2022-07-21T03:15:35;11.97;;;5.60;;
36215;SDS011;22257;52.232;21.084;2022-07-21T03:18:02;9.70;;;5.75;;
36215;SDS011;22257;52.232;21.084;2022-07-21T03:20:29;10.55;;;5.58;;
36215;SDS011;22257;52.232;21.084;2022-07-21T03:22:59;16.77;;;6.30;;
36215;SDS011;22257;52.232;21.084;2022-07-21T03:25:26;7.90;;;5.03;;
36215;SDS011;22257;52.232;21.084;2022-07-21T03:27:52;10.13;;;5.40;;
36215;SDS011;22257;52.232;21.084;2022-07-21T03:30:19;10.70;;;5.83;;
36215;SDS011;22257;52.232;21.084;2022-07-21T03:32:48;8.53;;;5.65;;
36215;SDS011;22257;52.232;21.084;2022-07-21T03:35:15;9.95;;;5.53;;
36215;SDS011;22257;52.232;21.084;2022-07-21T03:37:42;8.80;;;6.20;;
36215;SDS011;22257;52.232;21.084;2022-07-21T03:40:17;16.10;;;5.87;;
36215;SDS011;22257;52.232;21.084;2022-07-21T03:42:45;9.10;;;6.03;;
36215;SDS011;22257;52.232;21.084;2022-07-21T03:45:11;11.88;;;5.90;;
36215;SDS011;22257;52.232;21.084;2022-07-21T03:47:38;8.20;;;5.90;;
36215;SDS011;22257;52.232;21.084;2022-07-21T03:50:04;8.23;;;5.65;;
36215;SDS011;22257;52.232;21.084;2022-07-21T03:52:32;10.68;;;5.60;;
36215;SDS011;22257;52.232;21.084;2022-07-21T03:54:58;8.78;;;5.42;;
36215;SDS011;22257;52.232;21.084;2022-07-21T03:57:43;9.73;;;5.87;;
36215;SDS011;22257;52.232;21.084;2022-07-21T04:00:06;11.43;;;7.30;;
36215;SDS011;22257;52.232;21.084;2022-07-21T04:02:35;10.65;;;6.10;;
36215;SDS011;22257;52.232;21.084;2022-07-21T04:05:02;9.35;;;6.05;;
36215;SDS011;22257;52.232;21.084;2022-07-21T04:07:29;12.25;;;6.03;;
36215;SDS011;22257;52.232;21.084;2022-07-21T04:09:55;13.28;;;6.00;;
36215;SDS011;22257;52.232;21.084;2022-07-21T04:12:29;9.90;;;5.92;;
36215;SDS011;22257;52.232;21.084;2022-07-21T04:14:54;7.62;;;5.72;;
36215;SDS011;22257;52.232;21.084;2022-07-21T04:17:21;9.90;;;6.03;;
36215;SDS011;22257;52.232;21.084;2022-07-21T04:19:48;14.60;;;5.70;;
36215;SDS011;22257;52.232;21.084;2022-07-21T04:22:14;14.05;;;5.83;;
36215;SDS011;22257;52.232;21.084;2022-07-21T04:24:41;8.15;;;5.40;;
36215;SDS011;22257;52.232;21.084;2022-07-21T04:27:07;6.80;;;5.37;;
36215;SDS011;22257;52.232;21.084;2022-07-21T04:29:34;8.23;;;5.85;;
36215;SDS011;22257;52.232;21.084;2022-07-21T04:32:00;10.03;;;6.15;;
36215;SDS011;22257;52.232;21.084;2022-07-21T04:34:26;10.98;;;5.40;;
36215;SDS011;22257;52.232;21.084;2022-07-21T04:36:54;10.68;;;5.37;;
36215;SDS011;22257;52.232;21.084;2022-07-21T04:39:20;11.40;;;6.10;;
36215;SDS011;22257;52.232;21.084;2022-07-21T04:41:47;8.63;;;5.08;;
36215;SDS011;22257;52.232;21.084;2022-07-21T04:44:13;17.37;;;5.87;;
36215;SDS011;22257;52.232;21.084;2022-07-21T04:46:39;9.75;;;5.30;;
36215;SDS011;22257;52.232;21.084;2022-07-21T04:49:05;14.75;;;6.17;;
36215;SDS011;22257;52.232;21.084;2022-07-21T04:51:31;11.18;;;5.00;;
36215;SDS011;22257;52.232;21.084;2022-07-21T04:53:58;10.20;;;4.92;;
36215;SDS011;22257;52.232;21.084;2022-07-21T04:56:24;12.82;;;4.53;;
36215;SDS011;22257;52.232;21.084;2022-07-21T04:58:50;9.35;;;4.62;;
36215;SDS011;22257;52.232;21.084;2022-07-21T05:01:16;8.93;;;4.85;;
36215;SDS011;22257;52.232;21.084;2022-07-21T05:03:44;11.50;;;4.90;;
36215;SDS011;22257;52.232;21.084;2022-07-21T05:06:11;11.85;;;4.78;;
36215;SDS011;22257;52.232;21.084;2022-07-21T05:08:37;10.40;;;4.40;;
36215;SDS011;22257;52.232;21.084;2022-07-21T05:11:03;19.12;;;5.30;;
36215;SDS011;22257;52.232;21.084;2022-07-21T05:13:30;13.83;;;4.80;;
36215;SDS011;22257;52.232;21.084;2022-07-21T05:15:56;15.23;;;5.33;;
36215;SDS011;22257;52.232;21.084;2022-07-21T05:18:22;11.73;;;4.40;;
36215;SDS011;22257;52.232;21.084;2022-07-21T05:20:48;11.80;;;4.55;;
36215;SDS011;22257;52.232;21.084;2022-07-21T05:23:14;19.92;;;4.35;;
36215;SDS011;22257;52.232;21.084;2022-07-21T05:25:40;7.83;;;3.77;;
36215;SDS011;22257;52.232;21.084;2022-07-21T05:28:06;13.93;;;3.80;;
36215;SDS011;22257;52.232;21.084;2022-07-21T05:30:33;8.38;;;3.83;;
36215;SDS011;22257;52.232;21.084;2022-07-21T05:32:59;7.42;;;3.17;;
36215;SDS011;22257;52.232;21.084;2022-07-21T05:35:25;10.88;;;3.10;;
36215;SDS011;22257;52.232;21.084;2022-07-21T05:37:51;7.95;;;3.42;;
36215;SDS011;22257;52.232;21.084;2022-07-21T05:40:17;6.80;;;3.12;;
36215;SDS011;22257;52.232;21.084;2022-07-21T05:42:43;11.25;;;3.12;;
36215;SDS011;22257;52.232;21.084;2022-07-21T05:45:10;11.68;;;3.15;;
36215;SDS011;22257;52.232;21.084;2022-07-21T05:47:37;4.15;;;2.52;;
36215;SDS011;22257;52.232;21.084;2022-07-21T05:50:05;9.68;;;3.35;;
36215;SDS011;22257;52.232;21.084;2022-07-21T05:52:31;7.30;;;3.10;;
36215;SDS011;22257;52.232;21.084;2022-07-21T05:54:58;6.03;;;3.10;;
36215;SDS011;22257;52.232;21.084;2022-07-21T05:57:24;8.90;;;2.75;;
36215;SDS011;22257;52.232;21.084;2022-07-21T05:59:50;10.85;;;2.80;;
36215;SDS011;22257;52.232;21.084;2022-07-21T06:02:16;8.88;;;2.77;;
36215;SDS011;22257;52.232;21.084;2022-07-21T06:04:42;8.90;;;3.00;;
36215;SDS011;22257;52.232;21.084;2022-07-21T06:07:08;6.58;;;3.15;;
36215;SDS011;22257;52.232;21.084;2022-07-21T06:09:34;7.22;;;2.20;;
36215;SDS011;22257;52.232;21.084;2022-07-21T06:12:00;4.95;;;2.60;;
36215;SDS011;22257;52.232;21.084;2022-07-21T06:14:27;7.40;;;2.75;;
36215;SDS011;22257;52.232;21.084;2022-07-21T06:16:53;10.88;;;2.75;;
36215;SDS011;22257;52.232;21.084;2022-07-21T06:19:19;9.30;;;3.30;;
36215;SDS011;22257;52.232;21.084;2022-07-21T06:21:45;4.83;;;2.40;;
36215;SDS011;22257;52.232;21.084;2022-07-21T06:24:11;9.95;;;2.52;;
36215;SDS011;22257;52.232;21.084;2022-07-21T06:26:37;6.92;;;2.62;;
36215;SDS011;22257;52.232;21.084;2022-07-21T06:29:04;6.47;;;2.40;;
36215;SDS011;22257;52.232;21.084;2022-07-21T06:31:32;4.42;;;2.58;;
36215;SDS011;22257;52.232;21.084;2022-07-21T06:33:59;8.28;;;2.58;;
36215;SDS011;22257;52.232;21.084;2022-07-21T06:36:25;5.95;;;2.65;;
36215;SDS011;22257;52.232;21.084;2022-07-21T06:38:51;5.72;;;2.80;;
36215;SDS011;22257;52.232;21.084;2022-07-21T06:41:17;8.73;;;2.20;;
36215;SDS011;22257;52.232;21.084;2022-07-21T06:43:43;7.83;;;2.17;;
36215;SDS011;22257;52.232;21.084;2022-07-21T06:46:09;6.60;;;2.40;;
36215;SDS011;22257;52.232;21.084;2022-07-21T06:48:35;6.12;;;2.30;;
36215;SDS011;22257;52.232;21.084;2022-07-21T06:51:03;7.60;;;2.10;;
36215;SDS011;22257;52.232;21.084;2022-07-21T06:53:31;8.78;;;2.22;;
36215;SDS011;22257;52.232;21.084;2022-07-21T06:55:57;3.40;;;2.00;;
36215;SDS011;22257;52.232;21.084;2022-07-21T06:58:23;7.70;;;2.22;;
36215;SDS011;22257;52.232;21.084;2022-07-21T07:00:50;5.70;;;2.27;;
36215;SDS011;22257;52.232;21.084;2022-07-21T07:03:17;5.78;;;2.00;;
36215;SDS011;22257;52.232;21.084;2022-07-21T07:05:45;6.20;;;2.20;;
36215;SDS011;22257;52.232;21.084;2022-07-21T07:08:12;5.62;;;2.30;;
36215;SDS011;22257;52.232;21.084;2022-07-21T07:10:39;4.65;;;1.90;;
36215;SDS011;22257;52.232;21.084;2022-07-21T07:13:07;8.95;;;2.12;;
36215;SDS011;22257;52.232;21.084;2022-07-21T07:15:33;6.35;;;2.15;;
36215;SDS011;22257;52.232;21.084;2022-07-21T07:17:59;5.75;;;2.00;;
36215;SDS011;22257;52.232;21.084;2022-07-21T07:20:26;4.60;;;2.10;;
36215;SDS011;22257;52.232;21.084;2022-07-21T07:22:52;9.10;;;3.92;;
36215;SDS011;22257;52.232;21.084;2022-07-21T07:25:18;4.00;;;1.50;;
36215;SDS011;22257;52.232;21.084;2022-07-21T07:27:45;9.28;;;2.30;;
36215;SDS011;22257;52.232;21.084;2022-07-21T07:30:14;4.75;;;1.80;;
36215;SDS011;22257;52.232;21.084;2022-07-21T07:32:41;4.50;;;1.45;;
36215;SDS011;22257;52.232;21.084;2022-07-21T07:35:09;4.45;;;2.08;;
36215;SDS011;22257;52.232;21.084;2022-07-21T07:37:37;4.03;;;1.85;;
36215;SDS011;22257;52.232;21.084;2022-07-21T07:40:06;16.97;;;9.28;;
36215;SDS011;22257;52.232;21.084;2022-07-21T07:42:35;3.92;;;1.85;;
36215;SDS011;22257;52.232;21.084;2022-07-21T07:45:03;4.70;;;1.90;;
36215;SDS011;22257;52.232;21.084;2022-07-21T07:47:30;8.38;;;1.82;;
36215;SDS011;22257;52.232;21.084;2022-07-21T07:49:57;6.97;;;2.17;;
36215;SDS011;22257;52.232;21.084;2022-07-21T07:52:24;11.30;;;2.22;;
36215;SDS011;22257;52.232;21.084;2022-07-21T07:54:50;6.25;;;2.00;;
36215;SDS011;22257;52.232;21.084;2022-07-21T07:57:16;7.05;;;1.87;;
36215;SDS011;22257;52.232;21.084;2022-07-21T07:59:43;5.97;;;2.00;;
36215;SDS011;22257;52.232;21.084;2022-07-21T08:02:09;9.75;;;2.10;;
36215;SDS011;22257;52.232;21.084;2022-07-21T08:04:35;4.30;;;1.90;;
36215;SDS011;22257;52.232;21.084;2022-07-21T08:07:02;4.65;;;1.70;;
36215;SDS011;22257;52.232;21.084;2022-07-21T08:09:29;8.15;;;2.15;;
36215;SDS011;22257;52.232;21.084;2022-07-21T08:11:55;9.18;;;2.17;;
36215;SDS011;22257;52.232;21.084;2022-07-21T08:14:22;2.17;;;1.72;;
36215;SDS011;22257;52.232;21.084;2022-07-21T08:16:48;4.17;;;1.90;;
36215;SDS011;22257;52.232;21.084;2022-07-21T08:19:14;5.12;;;1.70;;
36215;SDS011;22257;52.232;21.084;2022-07-21T08:21:41;7.15;;;1.80;;
36215;SDS011;22257;52.232;21.084;2022-07-21T08:24:07;8.78;;;2.62;;
36215;SDS011;22257;52.232;21.084;2022-07-21T08:26:33;7.00;;;2.45;;
36215;SDS011;22257;52.232;21.084;2022-07-21T08:29:00;4.60;;;2.00;;
36215;SDS011;22257;52.232;21.084;2022-07-21T08:31:26;6.67;;;2.58;;
36215;SDS011;22257;52.232;21.084;2022-07-21T08:33:52;2.90;;;1.85;;
36215;SDS011;22257;52.232;21.084;2022-07-21T08:36:18;9.13;;;2.15;;
36215;SDS011;22257;52.232;21.084;2022-07-21T08:38:45;5.45;;;2.15;;
36215;SDS011;22257;52.232;21.084;2022-07-21T08:41:12;9.18;;;2.08;;
36215;SDS011;22257;52.232;21.084;2022-07-21T08:43:39;7.53;;;1.90;;
36215;SDS011;22257;52.232;21.084;2022-07-21T08:46:05;8.13;;;1.65;;
36215;SDS011;22257;52.232;21.084;2022-07-21T08:48:31;8.33;;;2.00;;
36215;SDS011;22257;52.232;21.084;2022-07-21T08:50:59;6.55;;;1.80;;
36215;SDS011;22257;52.232;21.084;2022-07-21T08:53:25;5.72;;;2.00;;
36215;SDS011;22257;52.232;21.084;2022-07-21T08:55:54;6.03;;;1.80;;
36215;SDS011;22257;52.232;21.084;2022-07-21T08:58:20;5.92;;;2.00;;
36215;SDS011;22257;52.232;21.084;2022-07-21T09:00:48;4.35;;;1.62;;
36215;SDS011;22257;52.232;21.084;2022-07-21T09:06:09;13.30;;;2.00;;
36215;SDS011;22257;52.232;21.084;2022-07-21T09:08:35;13.10;;;2.25;;
36215;SDS011;22257;52.232;21.084;2022-07-21T09:11:09;7.40;;;2.10;;
36215;SDS011;22257;52.232;21.084;2022-07-21T09:13:44;8.30;;;2.17;;
36215;SDS011;22257;52.232;21.084;2022-07-21T09:16:12;3.72;;;1.62;;
36215;SDS011;22257;52.232;21.084;2022-07-21T09:18:57;4.78;;;2.00;;
36215;SDS011;22257;52.232;21.084;2022-07-21T09:21:15;3.65;;;1.70;;
36215;SDS011;22257;52.232;21.084;2022-07-21T09:23:42;4.30;;;1.55;;
36215;SDS011;22257;52.232;21.084;2022-07-21T09:26:08;5.35;;;1.72;;
36215;SDS011;22257;52.232;21.084;2022-07-21T09:28:34;6.70;;;1.87;;
36215;SDS011;22257;52.232;21.084;2022-07-21T09:31:01;8.05;;;2.08;;
36215;SDS011;22257;52.232;21.084;2022-07-21T09:33:44;3.52;;;1.55;;
36215;SDS011;22257;52.232;21.084;2022-07-21T09:36:13;8.53;;;1.85;;
36215;SDS011;22257;52.232;21.084;2022-07-21T09:38:51;4.80;;;1.90;;
36215;SDS011;22257;52.232;21.084;2022-07-21T09:41:19;6.00;;;2.08;;
36215;SDS011;22257;52.232;21.084;2022-07-21T09:43:47;6.55;;;1.70;;
36215;SDS011;22257;52.232;21.084;2022-07-21T09:48:47;4.30;;;1.40;;
36215;SDS011;22257;52.232;21.084;2022-07-21T09:51:22;4.58;;;1.90;;
36215;SDS011;22257;52.232;21.084;2022-07-21T09:56:27;7.00;;;1.67;;
36215;SDS011;22257;52.232;21.084;2022-07-21T09:58:55;12.18;;;1.80;;
36215;SDS011;22257;52.232;21.084;2022-07-21T10:01:23;7.78;;;1.85;;
36215;SDS011;22257;52.232;21.084;2022-07-21T10:03:51;4.37;;;1.45;;
36215;SDS011;22257;52.232;21.084;2022-07-21T10:06:19;4.53;;;1.70;;
36215;SDS011;22257;52.232;21.084;2022-07-21T10:08:48;9.35;;;1.90;;
36215;SDS011;22257;52.232;21.084;2022-07-21T10:11:15;6.58;;;3.08;;
36215;SDS011;22257;52.232;21.084;2022-07-21T10:13:42;7.62;;;2.02;;
36215;SDS011;22257;52.232;21.084;2022-07-21T10:16:09;5.95;;;2.02;;
36215;SDS011;22257;52.232;21.084;2022-07-21T10:21:32;4.87;;;1.70;;
36215;SDS011;22257;52.232;21.084;2022-07-21T10:24:18;6.85;;;1.57;;
36215;SDS011;22257;52.232;21.084;2022-07-21T10:32:22;7.85;;;2.00;;
36215;SDS011;22257;52.232;21.084;2022-07-21T10:34:52;8.43;;;1.98;;
36215;SDS011;22257;52.232;21.084;2022-07-21T10:37:42;10.05;;;2.12;;
36215;SDS011;22257;52.232;21.084;2022-07-21T10:45:35;5.20;;;1.85;;
36215;SDS011;22257;52.232;21.084;2022-07-21T10:48:04;7.72;;;2.20;;
36215;SDS011;22257;52.232;21.084;2022-07-21T10:53:05;5.37;;;1.87;;
36215;SDS011;22257;52.232;21.084;2022-07-21T10:55:36;8.73;;;2.00;;
36215;SDS011;22257;52.232;21.084;2022-07-21T10:58:09;8.83;;;2.05;;
36215;SDS011;22257;52.232;21.084;2022-07-21T11:00:43;9.28;;;2.15;;
36215;SDS011;22257;52.232;21.084;2022-07-21T11:03:20;9.48;;;2.20;;
36215;SDS011;22257;52.232;21.084;2022-07-21T11:09:04;4.50;;;1.82;;
36215;SDS011;22257;52.232;21.084;2022-07-21T11:11:37;10.38;;;1.70;;
36215;SDS011;22257;52.232;21.084;2022-07-21T11:14:12;6.45;;;1.72;;
36215;SDS011;22257;52.232;21.084;2022-07-21T11:22:12;3.58;;;1.60;;
36215;SDS011;22257;52.232;21.084;2022-07-21T11:27:24;5.03;;;1.80;;
36215;SDS011;22257;52.232;21.084;2022-07-21T11:29:53;9.40;;;2.05;;
36215;SDS011;22257;52.232;21.084;2022-07-21T11:32:21;5.90;;;1.73;;
36215;SDS011;22257;52.232;21.084;2022-07-21T11:34:50;6.00;;;2.22;;
36215;SDS011;22257;52.232;21.084;2022-07-21T11:40:14;9.88;;;2.42;;
36215;SDS011;22257;52.232;21.084;2022-07-21T11:42:38;15.65;;;2.72;;
36215;SDS011;22257;52.232;21.084;2022-07-21T11:45:06;8.05;;;1.80;;
36215;SDS011;22257;52.232;21.084;2022-07-21T11:47:33;14.45;;;2.87;;
36215;SDS011;22257;52.232;21.084;2022-07-21T11:50:00;5.37;;;1.60;;
36215;SDS011;22257;52.232;21.084;2022-07-21T11:52:33;9.53;;;1.92;;
36215;SDS011;22257;52.232;21.084;2022-07-21T11:55:04;8.18;;;2.10;;
36215;SDS011;22257;52.232;21.084;2022-07-21T11:57:33;30.40;;;4.15;;
36215;SDS011;22257;52.232;21.084;2022-07-21T12:00:00;6.62;;;1.90;;
36215;SDS011;22257;52.232;21.084;2022-07-21T12:02:29;6.83;;;2.10;;
36215;SDS011;22257;52.232;21.084;2022-07-21T12:04:57;4.97;;;2.20;;
36215;SDS011;22257;52.232;21.084;2022-07-21T12:07:39;5.53;;;2.27;;
36215;SDS011;22257;52.232;21.084;2022-07-21T12:10:09;7.45;;;2.00;;
36215;SDS011;22257;52.232;21.084;2022-07-21T12:15:20;6.55;;;1.77;;
36215;SDS011;22257;52.232;21.084;2022-07-21T12:17:54;13.58;;;2.22;;
36215;SDS011;22257;52.232;21.084;2022-07-21T12:20:29;5.47;;;2.33;;
36215;SDS011;22257;52.232;21.084;2022-07-21T12:22:58;8.85;;;2.05;;
36215;SDS011;22257;52.232;21.084;2022-07-21T12:25:30;10.25;;;2.45;;
36215;SDS011;22257;52.232;21.084;2022-07-21T12:28:02;6.92;;;2.12;;
36215;SDS011;22257;52.232;21.084;2022-07-21T12:33:18;9.65;;;2.20;;
36215;SDS011;22257;52.232;21.084;2022-07-21T12:36:02;7.28;;;2.02;;
36215;SDS011;22257;52.232;21.084;2022-07-21T12:38:37;9.70;;;2.22;;
36215;SDS011;22257;52.232;21.084;2022-07-21T12:41:12;6.15;;;1.85;;
36215;SDS011;22257;52.232;21.084;2022-07-21T12:43:39;6.75;;;2.00;;
36215;SDS011;22257;52.232;21.084;2022-07-21T12:46:09;8.35;;;2.12;;
36215;SDS011;22257;52.232;21.084;2022-07-21T12:48:37;11.95;;;2.00;;
36215;SDS011;22257;52.232;21.084;2022-07-21T12:51:09;12.33;;;2.00;;
36215;SDS011;22257;52.232;21.084;2022-07-21T12:53:52;12.93;;;2.52;;
36215;SDS011;22257;52.232;21.084;2022-07-21T12:56:27;6.75;;;1.92;;
36215;SDS011;22257;52.232;21.084;2022-07-21T12:58:56;9.35;;;2.10;;
36215;SDS011;22257;52.232;21.084;2022-07-21T13:01:24;13.23;;;2.43;;
36215;SDS011;22257;52.232;21.084;2022-07-21T13:03:52;18.37;;;2.90;;
36215;SDS011;22257;52.232;21.084;2022-07-21T13:06:19;10.40;;;2.25;;
36215;SDS011;22257;52.232;21.084;2022-07-21T13:08:48;9.15;;;2.20;;
36215;SDS011;22257;52.232;21.084;2022-07-21T13:11:15;11.68;;;2.70;;
36215;SDS011;22257;52.232;21.084;2022-07-21T13:13:44;12.50;;;2.27;;
36215;SDS011;22257;52.232;21.084;2022-07-21T13:16:14;8.63;;;2.42;;
36215;SDS011;22257;52.232;21.084;2022-07-21T13:18:41;18.00;;;2.60;;
36215;SDS011;22257;52.232;21.084;2022-07-21T13:21:07;7.67;;;2.10;;
36215;SDS011;22257;52.232;21.084;2022-07-21T13:23:34;15.18;;;2.52;;
36215;SDS011;22257;52.232;21.084;2022-07-21T13:26:00;27.17;;;4.20;;
36215;SDS011;22257;52.232;21.084;2022-07-21T13:28:29;7.23;;;2.20;;
36215;SDS011;22257;52.232;21.084;2022-07-21T13:30:55;40.38;;;5.65;;
36215;SDS011;22257;52.232;21.084;2022-07-21T13:33:21;7.83;;;2.62;;
36215;SDS011;22257;52.232;21.084;2022-07-21T13:35:48;5.03;;;2.10;;
36215;SDS011;22257;52.232;21.084;2022-07-21T13:38:14;16.80;;;2.45;;
36215;SDS011;22257;52.232;21.084;2022-07-21T13:40:41;10.30;;;2.62;;
36215;SDS011;22257;52.232;21.084;2022-07-21T13:43:08;9.58;;;2.75;;
36215;SDS011;22257;52.232;21.084;2022-07-21T13:45:34;8.98;;;2.30;;
36215;SDS011;22257;52.232;21.084;2022-07-21T13:48:01;8.70;;;2.17;;
36215;SDS011;22257;52.232;21.084;2022-07-21T13:50:27;7.55;;;2.02;;
36215;SDS011;22257;52.232;21.084;2022-07-21T13:52:53;5.83;;;2.20;;
36215;SDS011;22257;52.232;21.084;2022-07-21T13:55:19;4.60;;;1.75;;
36215;SDS011;22257;52.232;21.084;2022-07-21T13:57:47;9.73;;;2.27;;
36215;SDS011;22257;52.232;21.084;2022-07-21T14:00:14;23.98;;;2.50;;
36215;SDS011;22257;52.232;21.084;2022-07-21T14:02:41;5.85;;;2.22;;
36215;SDS011;22257;52.232;21.084;2022-07-21T14:05:09;14.78;;;1.98;;
36215;SDS011;22257;52.232;21.084;2022-07-21T14:07:35;31.00;;;3.02;;
36215;SDS011;22257;52.232;21.084;2022-07-21T14:10:03;8.68;;;2.37;;
36215;SDS011;22257;52.232;21.084;2022-07-21T14:12:30;10.65;;;2.22;;
36215;SDS011;22257;52.232;21.084;2022-07-21T14:14:56;11.78;;;2.60;;
36215;SDS011;22257;52.232;21.084;2022-07-21T14:17:22;21.75;;;3.70;;
36215;SDS011;22257;52.232;21.084;2022-07-21T14:19:48;12.30;;;2.40;;
36215;SDS011;22257;52.232;21.084;2022-07-21T14:22:14;7.87;;;2.05;;
36215;SDS011;22257;52.232;21.084;2022-07-21T14:24:43;5.67;;;2.25;;
36215;SDS011;22257;52.232;21.084;2022-07-21T14:27:28;10.20;;;2.40;;
36215;SDS011;22257;52.232;21.084;2022-07-21T14:29:54;7.22;;;2.05;;
36215;SDS011;22257;52.232;21.084;2022-07-21T14:32:21;7.50;;;2.33;;
36215;SDS011;22257;52.232;21.084;2022-07-21T14:34:54;4.78;;;2.22;;
36215;SDS011;22257;52.232;21.084;2022-07-21T14:37:18;5.75;;;2.33;;
36215;SDS011;22257;52.232;21.084;2022-07-21T14:39:45;12.37;;;2.42;;
36215;SDS011;22257;52.232;21.084;2022-07-21T14:42:12;10.50;;;2.95;;
36215;SDS011;22257;52.232;21.084;2022-07-21T14:44:39;2.90;;;1.72;;
36215;SDS011;22257;52.232;21.084;2022-07-21T14:47:05;6.47;;;2.20;;
36215;SDS011;22257;52.232;21.084;2022-07-21T14:49:37;6.97;;;2.22;;
36215;SDS011;22257;52.232;21.084;2022-07-21T14:52:00;23.62;;;3.50;;
36215;SDS011;22257;52.232;21.084;2022-07-21T14:54:27;6.83;;;2.27;;
36215;SDS011;22257;52.232;21.084;2022-07-21T14:56:53;14.03;;;2.33;;
36215;SDS011;22257;52.232;21.084;2022-07-21T14:59:19;3.98;;;2.05;;
36215;SDS011;22257;52.232;21.084;2022-07-21T15:01:45;6.30;;;2.30;;
36215;SDS011;22257;52.232;21.084;2022-07-21T15:04:11;12.65;;;2.42;;
36215;SDS011;22257;52.232;21.084;2022-07-21T15:06:37;4.83;;;2.02;;
36215;SDS011;22257;52.232;21.084;2022-07-21T15:09:03;8.05;;;2.10;;
36215;SDS011;22257;52.232;21.084;2022-07-21T15:11:29;6.90;;;2.55;;
36215;SDS011;22257;52.232;21.084;2022-07-21T15:13:56;10.50;;;2.90;;
36215;SDS011;22257;52.232;21.084;2022-07-21T15:16:22;8.73;;;2.70;;
36215;SDS011;22257;52.232;21.084;2022-07-21T15:18:48;9.60;;;2.67;;